createdAt,value
2023-05-12T00:01:20.317Z,12.40
2023-05-12T00:03:47.569Z,10.30
2023-05-12T00:06:14.440Z,10.40
2023-05-12T00:08:42.737Z,12.00
2023-05-12T00:11:09.440Z,10.30
2023-05-12T00:13:36.103Z,10.30
2023-05-12T00:16:03.458Z,12.50
2023-05-12T00:18:30.266Z,11.50
2023-05-12T00:20:57.270Z,11.40
2023-05-12T00:23:23.962Z,11.80
2023-05-12T00:25:50.743Z,11.70
2023-05-12T00:28:18.133Z,10.30
2023-05-12T00:30:45.027Z,10.30
2023-05-12T00:33:12.020Z,12.60
2023-05-12T00:35:38.664Z,10.30
2023-05-12T00:38:05.557Z,12.70
2023-05-12T00:40:32.173Z,12.90
2023-05-12T00:42:58.863Z,10.30
2023-05-12T00:45:25.670Z,12.00
2023-05-12T00:47:53.664Z,10.30
2023-05-12T00:50:21.112Z,10.30
2023-05-12T00:52:48.948Z,10.30
2023-05-12T00:55:15.975Z,10.30
2023-05-12T00:57:43.282Z,12.30
2023-05-12T01:00:10.748Z,12.80
2023-05-12T01:02:37.752Z,10.20
2023-05-12T01:05:05.867Z,10.30
2023-05-12T01:07:32.965Z,10.20
2023-05-12T01:09:59.631Z,10.30
2023-05-12T01:12:27.083Z,10.20
2023-05-12T01:14:55.008Z,10.20
2023-05-12T01:17:23.621Z,11.80
2023-05-12T01:19:52.184Z,10.20
2023-05-12T01:22:19.024Z,10.20
2023-05-12T01:24:51.493Z,10.30
2023-05-12T01:27:19.539Z,10.30
2023-05-12T01:29:47.232Z,11.20
2023-05-12T01:32:14.752Z,11.90
2023-05-12T01:34:42.569Z,10.70
2023-05-12T01:37:09.901Z,10.20
2023-05-12T01:39:36.886Z,10.20
2023-05-12T01:42:04.267Z,12.30
2023-05-12T01:44:31.583Z,10.10
2023-05-12T01:46:58.413Z,10.10
2023-05-12T01:49:25.118Z,13.30
2023-05-12T01:51:51.854Z,11.60
2023-05-12T01:54:18.598Z,10.10
2023-05-12T01:56:45.631Z,10.10
2023-05-12T01:59:12.580Z,13.30
2023-05-12T02:01:39.401Z,10.00
2023-05-12T02:04:09.119Z,10.10
2023-05-12T02:06:36.074Z,10.00
2023-05-12T02:09:02.897Z,10.10
2023-05-12T02:11:29.770Z,10.70
2023-05-12T02:13:57.029Z,10.00
2023-05-12T02:16:23.722Z,12.30
2023-05-12T02:18:50.698Z,10.00
2023-05-12T02:21:18.189Z,10.10
2023-05-12T02:23:45.183Z,10.10
2023-05-12T02:26:12.136Z,10.10
2023-05-12T02:28:39.045Z,12.50
2023-05-12T02:31:06.041Z,11.00
2023-05-12T02:33:33.013Z,10.20
2023-05-12T02:35:59.727Z,10.20
2023-05-12T02:38:26.445Z,10.10
2023-05-12T02:40:53.194Z,10.80
2023-05-12T02:43:20.114Z,10.20
2023-05-12T02:45:47.144Z,10.20
2023-05-12T02:48:13.812Z,10.20
2023-05-12T02:50:40.539Z,10.20
2023-05-12T02:53:07.307Z,10.20
2023-05-12T02:55:34.115Z,10.20
2023-05-12T02:58:01.923Z,10.20
2023-05-12T03:00:28.668Z,10.10
2023-05-12T03:02:55.550Z,12.80
2023-05-12T03:05:22.394Z,10.20
2023-05-12T03:07:50.645Z,12.10
2023-05-12T03:10:19.319Z,10.20
2023-05-12T03:12:46.398Z,10.20
2023-05-12T03:15:13.195Z,12.70
2023-05-12T03:17:40.515Z,10.10
2023-05-12T03:20:07.478Z,11.30
2023-05-12T03:22:34.246Z,10.00
2023-05-12T03:25:01.029Z,10.10
2023-05-12T03:27:27.941Z,10.20
2023-05-12T03:29:54.580Z,10.20
2023-05-12T03:32:21.360Z,12.70
2023-05-12T03:34:48.168Z,10.20
2023-05-12T03:37:15.269Z,10.20
2023-05-12T03:39:42.424Z,10.30
2023-05-12T03:42:09.070Z,10.30
2023-05-12T03:44:36.011Z,10.20
2023-05-12T03:47:02.808Z,12.20
2023-05-12T03:49:29.627Z,12.70
2023-05-12T03:51:56.794Z,10.20
2023-05-12T03:54:23.548Z,10.20
2023-05-12T03:56:51.939Z,11.60
2023-05-12T03:59:19.280Z,10.20
2023-05-12T04:01:46.302Z,10.20
2023-05-12T04:04:13.158Z,10.30
2023-05-12T04:06:40.462Z,10.20
2023-05-12T04:09:07.086Z,10.20
2023-05-12T04:11:33.676Z,12.70
2023-05-12T04:14:00.477Z,10.30
2023-05-12T04:16:27.289Z,12.00
2023-05-12T04:18:54.016Z,10.30
2023-05-12T04:21:21.077Z,12.40
2023-05-12T04:23:51.036Z,12.10
2023-05-12T04:26:17.788Z,13.40
2023-05-12T04:28:44.507Z,10.30
2023-05-12T04:31:11.202Z,10.30
2023-05-12T04:33:37.945Z,12.50
2023-05-12T04:36:05.721Z,10.40
2023-05-12T04:38:32.394Z,9.20
2023-05-12T04:41:00.006Z,12.10
2023-05-12T04:45:58.600Z,10.40
2023-05-12T04:48:26.823Z,10.50
2023-05-12T04:50:53.547Z,10.50
2023-05-12T04:53:20.190Z,11.90
2023-05-12T04:55:47.114Z,12.80
2023-05-12T04:58:13.927Z,11.80
2023-05-12T05:00:40.649Z,12.30
2023-05-12T05:03:07.498Z,10.60
2023-05-12T05:05:34.320Z,12.00
2023-05-12T05:08:01.714Z,12.50
2023-05-12T05:10:28.404Z,10.70
2023-05-12T05:12:55.032Z,12.00
2023-05-12T05:15:21.741Z,10.70
2023-05-12T05:17:50.080Z,12.20
2023-05-12T05:20:16.994Z,10.60
2023-05-12T05:22:43.872Z,10.70
2023-05-12T05:25:10.949Z,13.20
2023-05-12T05:27:38.867Z,12.30
2023-05-12T05:30:06.848Z,13.90
2023-05-12T05:32:34.649Z,10.90
2023-05-12T05:35:01.352Z,10.90
2023-05-12T05:37:29.154Z,13.20
2023-05-12T05:39:55.812Z,11.00
2023-05-12T05:42:22.589Z,12.20
2023-05-12T05:44:49.270Z,13.00
2023-05-12T05:47:15.961Z,11.10
2023-05-12T05:49:42.740Z,13.70
2023-05-12T05:52:09.513Z,11.10
2023-05-12T05:54:36.123Z,12.90
2023-05-12T05:57:03.303Z,11.10
2023-05-12T05:59:29.920Z,11.10
2023-05-12T06:01:56.626Z,11.10
2023-05-12T06:04:23.531Z,11.10
2023-05-12T06:06:50.294Z,13.40
2023-05-12T06:09:17.578Z,12.90
2023-05-12T06:11:44.230Z,12.30
2023-05-12T06:14:11.780Z,12.10
2023-05-12T06:16:38.680Z,11.40
2023-05-12T06:19:05.459Z,13.50
2023-05-12T06:21:33.424Z,13.30
2023-05-12T06:24:00.180Z,13.50
2023-05-12T06:26:26.908Z,12.90
2023-05-12T06:28:53.607Z,11.40
2023-05-12T06:31:20.370Z,11.40
2023-05-12T06:33:47.181Z,11.40
2023-05-12T06:36:13.966Z,13.70
2023-05-12T06:38:40.748Z,13.40
2023-05-12T06:41:07.452Z,14.00
2023-05-12T06:43:34.384Z,11.40
2023-05-12T06:46:01.193Z,14.40
2023-05-12T06:48:27.798Z,13.50
2023-05-12T06:50:54.463Z,13.00
2023-05-12T06:53:22.862Z,13.10
2023-05-12T06:55:51.148Z,12.60
2023-05-12T06:58:19.087Z,11.40
2023-05-12T07:00:45.767Z,14.00
2023-05-12T07:03:12.611Z,11.70
2023-05-12T07:05:40.014Z,13.30
2023-05-12T07:08:06.693Z,11.50
2023-05-12T07:10:35.288Z,13.40
2023-05-12T07:13:02.046Z,14.20
2023-05-12T07:15:30.588Z,13.90
2023-05-12T07:17:58.928Z,14.20
2023-05-12T07:20:26.013Z,14.50
2023-05-12T07:22:54.916Z,14.00
2023-05-12T07:25:22.154Z,14.90
2023-05-12T07:27:50.118Z,14.40
2023-05-12T07:30:17.209Z,14.40
2023-05-12T07:32:43.918Z,13.00
2023-05-12T07:35:10.767Z,15.00
2023-05-12T07:37:37.936Z,13.20
2023-05-12T07:40:04.928Z,15.50
2023-05-12T07:42:31.586Z,13.10
2023-05-12T07:44:58.402Z,14.20
2023-05-12T07:47:25.435Z,13.30
2023-05-12T07:49:52.071Z,15.70
2023-05-12T07:52:18.818Z,15.60
2023-05-12T07:54:45.784Z,14.00
2023-05-12T07:57:12.469Z,13.10
2023-05-12T07:59:39.146Z,14.80
2023-05-12T08:02:05.915Z,14.30
2023-05-12T08:04:32.713Z,14.30
2023-05-12T08:06:59.472Z,15.00
2023-05-12T08:09:27.506Z,15.30
2023-05-12T08:11:54.496Z,15.20
2023-05-12T08:14:22.816Z,13.40
2023-05-12T08:16:49.723Z,15.40
2023-05-12T08:19:16.319Z,13.40
2023-05-12T08:21:43.308Z,16.40
2023-05-12T08:24:09.974Z,14.90
2023-05-12T08:26:36.607Z,13.50
2023-05-12T08:29:04.862Z,13.40
2023-05-12T08:31:31.979Z,13.40
2023-05-12T08:34:09.135Z,15.30
2023-05-12T08:36:37.595Z,13.40
2023-05-12T08:39:04.334Z,13.20
2023-05-12T08:41:34.018Z,13.10
2023-05-12T08:44:01.478Z,13.10
2023-05-12T08:46:28.445Z,14.10
2023-05-12T08:48:55.618Z,13.50
2023-05-12T08:51:23.944Z,13.00
2023-05-12T08:53:51.986Z,15.10
2023-05-12T08:58:49.934Z,15.20
2023-05-12T09:01:17.878Z,14.90
2023-05-12T09:03:45.163Z,14.90
2023-05-12T09:06:12.263Z,12.50
2023-05-12T09:08:40.350Z,13.10
2023-05-12T09:11:09.778Z,13.50
2023-05-12T09:13:40.315Z,13.10
2023-05-12T09:16:09.779Z,12.70
2023-05-12T09:18:50.156Z,12.90
2023-05-12T09:21:16.907Z,13.00
2023-05-12T09:23:59.038Z,14.50
2023-05-12T09:26:27.300Z,13.40
2023-05-12T09:28:56.482Z,14.80
2023-05-12T09:31:23.953Z,16.00
2023-05-12T09:33:51.402Z,14.00
2023-05-12T09:36:19.261Z,15.80
2023-05-12T09:38:45.976Z,15.30
2023-05-12T09:41:12.630Z,14.10
2023-05-12T09:43:44.845Z,16.30
2023-05-12T09:46:11.561Z,14.30
2023-05-12T09:48:39.085Z,14.80
2023-05-12T09:51:09.197Z,16.20
2023-05-12T09:53:40.678Z,13.60
2023-05-12T09:56:07.313Z,16.20
2023-05-12T09:58:34.317Z,15.60
2023-05-12T10:01:18.286Z,15.60
2023-05-12T10:03:54.968Z,14.70
2023-05-12T10:06:28.939Z,13.90
2023-05-12T10:09:09.237Z,13.90
2023-05-12T10:11:36.045Z,13.90
2023-05-12T10:14:03.021Z,15.10
2023-05-12T10:16:30.148Z,16.00
2023-05-12T10:18:57.060Z,15.30
2023-05-12T10:21:24.913Z,14.80
2023-05-12T10:23:52.285Z,14.70
2023-05-12T10:26:18.965Z,15.40
2023-05-12T10:28:45.956Z,15.50
2023-05-12T10:31:13.552Z,15.20
2023-05-12T10:33:40.277Z,16.00
2023-05-12T10:36:19.205Z,14.60
2023-05-12T10:38:48.566Z,14.00
2023-05-12T10:41:17.127Z,17.60
2023-05-12T10:43:47.465Z,14.90
2023-05-12T10:46:18.983Z,14.90
2023-05-12T10:49:01.178Z,13.90
2023-05-12T10:51:35.193Z,13.90
2023-05-12T10:54:03.777Z,14.10
2023-05-12T10:56:32.079Z,16.20
2023-05-12T10:59:09.417Z,15.30
2023-05-12T11:01:37.850Z,14.40
2023-05-12T11:04:15.298Z,14.30
2023-05-12T11:06:43.478Z,14.30
2023-05-12T11:09:13.910Z,14.40
2023-05-12T11:11:41.125Z,14.10
2023-05-12T11:14:09.812Z,15.60
2023-05-12T11:16:42.089Z,14.80
2023-05-12T11:19:09.253Z,16.40
2023-05-12T11:21:36.049Z,16.40
2023-05-12T11:24:03.068Z,16.00
2023-05-12T11:26:30.053Z,13.60
2023-05-12T11:28:57.534Z,14.60
2023-05-12T11:31:24.728Z,15.30
2023-05-12T11:34:11.426Z,14.90
2023-05-12T11:36:40.627Z,14.80
2023-05-12T11:39:07.868Z,13.50
2023-05-12T11:41:34.714Z,15.60
2023-05-12T11:44:12.341Z,14.50
2023-05-12T11:46:39.288Z,15.00
2023-05-12T11:49:11.145Z,13.50
2023-05-12T11:51:41.898Z,13.50
2023-05-12T11:54:09.049Z,14.00
2023-05-12T11:56:37.107Z,15.80
2023-05-12T11:59:03.880Z,15.40
2023-05-12T12:01:32.346Z,14.10
2023-05-12T12:03:59.268Z,15.70
2023-05-12T12:06:28.939Z,14.30
2023-05-12T12:08:57.005Z,15.80
2023-05-12T12:11:24.536Z,15.10
2023-05-12T12:13:58.527Z,16.80
2023-05-12T12:16:28.632Z,14.10
2023-05-12T12:18:55.684Z,15.00
2023-05-12T12:21:23.135Z,15.00
2023-05-12T12:23:51.726Z,14.00
2023-05-12T12:26:20.958Z,13.50
2023-05-12T12:28:47.887Z,16.10
2023-05-12T12:31:14.930Z,14.90
2023-05-12T12:33:41.569Z,15.10
2023-05-12T12:36:08.308Z,14.90
2023-05-12T12:38:37.492Z,13.00
2023-05-12T12:41:05.152Z,13.00
2023-05-12T12:43:34.118Z,14.80
2023-05-12T12:46:00.754Z,14.30
2023-05-12T12:48:30.462Z,15.60
2023-05-12T12:50:57.454Z,15.40
2023-05-12T12:53:24.080Z,14.70
2023-05-12T12:55:51.236Z,14.60
2023-05-12T12:58:19.411Z,14.10
2023-05-12T13:00:46.229Z,12.40
2023-05-12T13:03:13.372Z,14.40
2023-05-12T13:05:40.186Z,13.90
2023-05-12T13:08:07.081Z,12.30
2023-05-12T13:10:34.511Z,12.30
2023-05-12T13:13:01.211Z,14.90
2023-05-12T13:15:27.879Z,12.40
2023-05-12T13:17:54.625Z,13.90
2023-05-12T13:20:21.662Z,12.80
2023-05-12T13:22:48.651Z,13.90
2023-05-12T13:25:16.624Z,13.00
2023-05-12T13:27:43.362Z,14.70
2023-05-12T13:30:13.299Z,15.40
2023-05-12T13:32:40.638Z,12.50
2023-05-12T13:35:07.637Z,12.50
2023-05-12T13:37:34.376Z,12.50
2023-05-12T13:40:01.002Z,14.60
2023-05-12T13:42:27.749Z,15.00
2023-05-12T13:44:54.561Z,14.00
2023-05-12T13:47:21.765Z,12.70
2023-05-12T13:49:48.378Z,13.90
2023-05-12T13:52:15.346Z,14.70
2023-05-12T13:54:42.118Z,14.30
2023-05-12T13:57:09.119Z,15.10
2023-05-12T13:59:35.739Z,13.60
2023-05-12T14:02:02.929Z,15.60
2023-05-12T14:04:29.954Z,12.70
2023-05-12T14:06:57.064Z,12.80
2023-05-12T14:09:23.991Z,14.00
2023-05-12T14:11:53.090Z,14.90
2023-05-12T14:14:19.957Z,14.50
2023-05-12T14:16:46.712Z,15.00
2023-05-12T14:19:14.693Z,14.80
2023-05-12T14:21:43.711Z,15.40
2023-05-12T14:24:10.424Z,15.60
2023-05-12T14:26:37.385Z,15.50
2023-05-12T14:29:06.938Z,13.80
2023-05-12T14:31:34.991Z,14.10
2023-05-12T14:34:05.069Z,15.20
2023-05-12T14:36:32.270Z,15.20
2023-05-12T14:38:59.002Z,14.40
2023-05-12T14:41:25.729Z,15.00
2023-05-12T14:43:52.386Z,15.40
2023-05-12T14:46:19.100Z,15.20
2023-05-12T14:48:45.783Z,14.90
2023-05-12T14:51:12.434Z,14.50
2023-05-12T14:53:39.033Z,15.90
2023-05-12T14:56:06.297Z,13.30
2023-05-12T14:58:33.044Z,13.20
2023-05-12T15:01:02.162Z,15.00
2023-05-12T15:03:28.984Z,15.30
2023-05-12T15:06:05.746Z,13.30
2023-05-12T15:08:33.438Z,14.30
2023-05-12T15:11:00.285Z,13.90
2023-05-12T15:13:27.035Z,13.10
2023-05-12T15:15:55.361Z,14.20
2023-05-12T15:18:23.762Z,13.00
2023-05-12T15:20:50.592Z,15.20
2023-05-12T15:23:17.474Z,15.20
2023-05-12T15:25:44.294Z,14.20
2023-05-12T15:28:12.588Z,13.40
2023-05-12T15:30:39.280Z,15.40
2023-05-12T15:33:06.617Z,13.30
2023-05-12T15:35:35.012Z,14.90
2023-05-12T15:38:01.667Z,13.40
2023-05-12T15:40:30.767Z,16.60
2023-05-12T15:42:58.182Z,15.00
2023-05-12T15:45:24.900Z,13.50
2023-05-12T15:47:51.873Z,13.50
2023-05-12T15:50:22.772Z,15.60
2023-05-12T15:52:50.047Z,13.30
2023-05-12T15:55:16.965Z,15.90
2023-05-12T15:57:43.698Z,13.20
2023-05-12T16:00:10.739Z,14.50
2023-05-12T16:02:47.100Z,13.10
2023-05-12T16:08:00.694Z,12.80
2023-05-12T16:10:29.045Z,12.50
2023-05-12T16:13:03.149Z,12.30
2023-05-12T16:15:29.852Z,13.10
2023-05-12T16:17:56.758Z,14.00
2023-05-12T16:20:23.740Z,13.40
2023-05-12T16:22:52.191Z,12.00
2023-05-12T16:25:19.184Z,13.70
2023-05-12T16:27:46.002Z,12.00
2023-05-12T16:30:13.355Z,12.00
2023-05-12T16:32:40.689Z,12.00
2023-05-12T16:35:07.989Z,14.50
2023-05-12T16:37:34.622Z,12.00
2023-05-12T16:40:01.353Z,13.90
2023-05-12T16:42:28.227Z,12.10
2023-05-12T16:44:54.982Z,13.60
2023-05-12T16:47:21.788Z,14.40
2023-05-12T16:49:51.847Z,13.00
2023-05-12T16:52:18.420Z,13.40
2023-05-12T16:54:45.413Z,13.20
2023-05-12T16:57:12.301Z,12.60
2023-05-12T16:59:39.922Z,14.60
2023-05-12T17:02:07.025Z,13.50
2023-05-12T17:04:34.414Z,13.70
2023-05-12T17:07:01.439Z,13.20
2023-05-12T17:09:28.169Z,14.80
2023-05-12T17:11:55.301Z,13.60
2023-05-12T17:14:23.418Z,12.90
2023-05-12T17:16:50.103Z,14.50
2023-05-12T17:19:17.316Z,13.50
2023-05-12T17:21:43.985Z,13.90
2023-05-12T17:24:10.713Z,14.70
2023-05-12T17:26:40.508Z,13.00
2023-05-12T17:29:07.259Z,15.60
2023-05-12T17:31:34.246Z,13.70
2023-05-12T17:34:01.052Z,15.00
2023-05-12T17:36:27.846Z,15.70
2023-05-12T17:38:54.710Z,15.70
2023-05-12T17:41:21.824Z,14.00
2023-05-12T17:43:48.726Z,13.10
2023-05-12T17:46:15.534Z,14.40
2023-05-12T17:48:42.200Z,13.10
2023-05-12T17:51:10.021Z,15.10
2023-05-12T17:53:37.234Z,15.10
2023-05-12T17:56:04.032Z,13.50
2023-05-12T17:58:30.899Z,12.70
2023-05-12T18:00:57.676Z,12.70
2023-05-12T18:03:24.756Z,14.10
2023-05-12T18:05:52.465Z,12.60
2023-05-12T18:08:19.990Z,14.80
2023-05-12T18:10:46.835Z,12.50
2023-05-12T18:13:14.917Z,12.40
2023-05-12T18:15:41.906Z,12.40
2023-05-12T18:18:10.225Z,14.40
2023-05-12T18:20:36.992Z,14.60
2023-05-12T18:23:03.635Z,14.70
2023-05-12T18:25:30.335Z,13.00
2023-05-12T18:27:57.097Z,13.90
2023-05-12T18:30:23.778Z,14.60
2023-05-12T18:32:51.158Z,14.50
2023-05-12T18:35:18.102Z,12.80
2023-05-12T18:37:45.180Z,15.30
2023-05-12T18:40:12.525Z,13.40
2023-05-12T18:42:39.462Z,12.10
2023-05-12T18:45:06.776Z,13.20
2023-05-12T18:47:33.699Z,12.00
2023-05-12T18:50:00.426Z,14.30
2023-05-12T18:52:27.153Z,11.90
2023-05-12T18:54:53.915Z,11.90
2023-05-12T18:57:22.565Z,11.90
2023-05-12T18:59:49.296Z,11.80
2023-05-12T19:02:16.022Z,11.80
2023-05-12T19:04:42.854Z,14.00
2023-05-12T19:07:11.833Z,11.80
2023-05-12T19:09:38.621Z,11.80
2023-05-12T19:12:06.141Z,11.80
2023-05-12T19:14:33.016Z,11.80
2023-05-12T19:16:59.709Z,13.10
2023-05-12T19:19:26.286Z,14.50
2023-05-12T19:21:52.990Z,13.00
2023-05-12T19:24:20.041Z,12.20
2023-05-12T19:26:47.114Z,11.80
2023-05-12T19:29:13.885Z,11.90
2023-05-12T19:31:41.111Z,11.70
2023-05-12T19:34:07.949Z,13.30
2023-05-12T19:36:36.214Z,11.70
2023-05-12T19:39:03.250Z,13.80
2023-05-12T19:41:30.167Z,14.00
2023-05-12T19:43:56.834Z,13.30
2023-05-12T19:46:23.913Z,13.60
2023-05-12T19:48:51.221Z,11.70
2023-05-12T19:51:17.935Z,9.30
2023-05-12T19:53:44.603Z,11.70
2023-05-12T19:56:11.325Z,14.20
2023-05-12T19:58:38.427Z,12.00
2023-05-12T20:01:05.302Z,13.20
2023-05-12T20:03:32.071Z,11.60
2023-05-12T20:05:58.937Z,13.10
2023-05-12T20:08:25.722Z,12.40
2023-05-12T20:10:52.359Z,11.60
2023-05-12T20:13:19.073Z,14.00
2023-05-12T20:15:47.002Z,13.40
2023-05-12T20:18:15.652Z,11.60
2023-05-12T20:20:43.216Z,13.80
2023-05-12T20:23:10.019Z,13.90
2023-05-12T20:25:36.785Z,11.60
2023-05-12T20:28:03.666Z,12.80
2023-05-12T20:30:30.584Z,11.50
2023-05-12T20:32:57.389Z,14.20
2023-05-12T20:35:24.612Z,13.30
2023-05-12T20:37:51.371Z,12.60
2023-05-12T20:40:18.321Z,13.00
2023-05-12T20:42:46.104Z,13.20
2023-05-12T20:45:13.358Z,12.20
2023-05-12T20:47:40.093Z,11.40
2023-05-12T20:50:07.293Z,13.30
2023-05-12T20:52:36.348Z,11.40
2023-05-12T20:55:03.384Z,12.50
2023-05-12T20:57:30.484Z,11.30
2023-05-12T20:59:57.153Z,13.40
2023-05-12T21:02:24.957Z,13.80
2023-05-12T21:04:52.032Z,11.40
2023-05-12T21:07:18.897Z,13.00
2023-05-12T21:09:46.228Z,13.60
2023-05-12T21:12:13.175Z,13.60
2023-05-12T21:14:40.815Z,14.30
2023-05-12T21:17:09.264Z,11.40
2023-05-12T21:19:36.656Z,11.00
2023-05-12T21:22:04.144Z,14.80
2023-05-12T21:24:31.201Z,11.30
2023-05-12T21:26:58.000Z,12.20
2023-05-12T21:29:24.703Z,13.90
2023-05-12T21:31:51.858Z,11.30
2023-05-12T21:34:18.666Z,12.30
2023-05-12T21:36:45.452Z,11.60
2023-05-12T21:39:12.483Z,11.30
2023-05-12T21:41:39.656Z,13.70
2023-05-12T21:44:06.408Z,13.80
2023-05-12T21:46:33.661Z,13.70
2023-05-12T21:49:00.452Z,11.20
2023-05-12T21:51:27.237Z,13.50
2023-05-12T21:53:57.084Z,14.00
2023-05-12T21:56:23.821Z,13.40
2023-05-12T21:58:50.888Z,11.30
2023-05-12T22:01:18.293Z,14.10
2023-05-12T22:03:45.626Z,11.30
2023-05-12T22:06:12.333Z,13.70
2023-05-12T22:08:39.022Z,12.50
2023-05-12T22:11:05.841Z,11.20
2023-05-12T22:13:32.578Z,11.20
2023-05-12T22:16:00.003Z,11.20
2023-05-12T22:18:26.747Z,11.20
2023-05-12T22:20:53.467Z,11.20
2023-05-12T22:23:20.238Z,13.10
2023-05-12T22:25:46.977Z,12.40
2023-05-12T22:28:13.698Z,14.20
2023-05-12T22:30:41.653Z,13.70
2023-05-12T22:33:08.397Z,13.40
2023-05-12T22:35:35.421Z,14.30
2023-05-12T22:38:02.351Z,13.90
2023-05-12T22:40:29.429Z,13.30
2023-05-12T22:42:56.140Z,11.20
2023-05-12T22:45:22.969Z,12.50
2023-05-12T22:47:49.699Z,12.90
2023-05-12T22:50:16.718Z,13.80
2023-05-12T22:52:43.430Z,13.10
2023-05-12T22:55:11.122Z,13.00
2023-05-12T22:57:43.753Z,11.10
2023-05-12T23:00:10.798Z,11.80
2023-05-12T23:02:37.526Z,11.00
2023-05-12T23:05:04.515Z,11.00
2023-05-12T23:07:31.258Z,10.90
2023-05-12T23:09:58.080Z,10.90
2023-05-12T23:12:24.757Z,10.90
2023-05-12T23:14:51.764Z,10.80
2023-05-12T23:17:18.760Z,12.50
2023-05-12T23:19:45.618Z,10.80
2023-05-12T23:22:12.484Z,14.30
2023-05-12T23:24:39.131Z,10.70
2023-05-12T23:27:05.960Z,13.20
2023-05-12T23:29:34.823Z,10.60
2023-05-12T23:32:01.775Z,12.20
2023-05-12T23:34:28.835Z,10.50
2023-05-12T23:36:55.528Z,10.40
2023-05-12T23:39:22.176Z,13.00
2023-05-12T23:41:49.660Z,10.30
2023-05-12T23:44:16.643Z,12.20
2023-05-12T23:46:43.426Z,10.10
2023-05-12T23:49:10.538Z,10.10
2023-05-12T23:51:37.464Z,11.80
2023-05-12T23:54:04.146Z,12.60
2023-05-12T23:56:31.504Z,9.80
2023-05-12T23:58:58.445Z,12.90
